ěÝzenÝ letovÚho provozu ╚eskÚ republiky
Letiste: LKCS Aktualizace: 22.04.2024 02:01:00  UTC
 METAR LKCS 22.04. 02:00 ...
METAR LKCS 220200Z AUTO VRB02KT CAVOK M01/M03 Q1019=